sensor_id;sensor_type;location;lat;lon;timestamp;pressure;altitude;pressure_sealevel;temperature;humidity
15529;BME280;7866;52.280;9.500;2023-12-22T00:02:18;98164.91;;;5.16;87.04
15529;BME280;7866;52.280;9.500;2023-12-22T00:07:21;98159.53;;;5.10;88.03
15529;BME280;7866;52.280;9.500;2023-12-22T00:12:23;98152.25;;;5.18;88.73
15529;BME280;7866;52.280;9.500;2023-12-22T00:17:24;98144.22;;;5.27;87.85
15529;BME280;7866;52.280;9.500;2023-12-22T00:22:27;98151.28;;;5.19;86.30
15529;BME280;7866;52.280;9.500;2023-12-22T00:27:29;98168.13;;;5.33;85.96
15529;BME280;7866;52.280;9.500;2023-12-22T00:32:31;98160.81;;;5.35;85.69
15529;BME280;7866;52.280;9.500;2023-12-22T00:37:34;98167.31;;;5.33;84.32
15529;BME280;7866;52.280;9.500;2023-12-22T00:42:35;98156.69;;;5.33;84.59
15529;BME280;7866;52.280;9.500;2023-12-22T00:47:37;98160.41;;;5.38;83.81
15529;BME280;7866;52.280;9.500;2023-12-22T00:52:40;98169.97;;;5.33;83.47
15529;BME280;7866;52.280;9.500;2023-12-22T00:57:42;98187.81;;;5.39;84.93
15529;BME280;7866;52.280;9.500;2023-12-22T01:02:44;98201.69;;;5.41;84.00
15529;BME280;7866;52.280;9.500;2023-12-22T01:07:47;98206.72;;;5.51;84.76
15529;BME280;7866;52.280;9.500;2023-12-22T01:12:49;98186.22;;;5.44;83.79
15529;BME280;7866;52.280;9.500;2023-12-22T01:17:50;98199.03;;;5.41;84.87
15529;BME280;7866;52.280;9.500;2023-12-22T01:22:53;98189.44;;;5.40;84.35
15529;BME280;7866;52.280;9.500;2023-12-22T01:27:55;98208.97;;;5.32;84.08
15529;BME280;7866;52.280;9.500;2023-12-22T01:32:56;98203.72;;;5.39;83.91
15529;BME280;7866;52.280;9.500;2023-12-22T01:38:00;98216.72;;;5.34;83.29
15529;BME280;7866;52.280;9.500;2023-12-22T01:43:01;98231.09;;;5.39;83.35
15529;BME280;7866;52.280;9.500;2023-12-22T01:48:03;98245.34;;;5.38;84.22
15529;BME280;7866;52.280;9.500;2023-12-22T01:53:07;98261.22;;;5.32;84.12
15529;BME280;7866;52.280;9.500;2023-12-22T01:58:09;98245.56;;;5.37;83.55
15529;BME280;7866;52.280;9.500;2023-12-22T02:03:12;98234.56;;;5.40;84.21
15529;BME280;7866;52.280;9.500;2023-12-22T02:08:17;98258.00;;;5.36;84.40
15529;BME280;7866;52.280;9.500;2023-12-22T02:13:19;98237.59;;;5.37;84.04
15529;BME280;7866;52.280;9.500;2023-12-22T02:18:24;98275.88;;;5.28;85.81
15529;BME280;7866;52.280;9.500;2023-12-22T02:23:29;98253.59;;;4.92;87.90
15529;BME280;7866;52.280;9.500;2023-12-22T02:28:31;98252.41;;;4.80;88.40
15529;BME280;7866;52.280;9.500;2023-12-22T02:33:35;98262.09;;;4.73;89.87
15529;BME280;7866;52.280;9.500;2023-12-22T02:38:39;98253.25;;;4.81;88.86
15529;BME280;7866;52.280;9.500;2023-12-22T02:43:41;98234.94;;;4.86;87.59
15529;BME280;7866;52.280;9.500;2023-12-22T02:48:43;98254.78;;;4.90;88.14
15529;BME280;7866;52.280;9.500;2023-12-22T02:53:46;98258.25;;;4.90;86.63
15529;BME280;7866;52.280;9.500;2023-12-22T02:58:48;98234.38;;;4.90;87.29
15529;BME280;7866;52.280;9.500;2023-12-22T03:03:49;98220.41;;;4.82;86.72
15529;BME280;7866;52.280;9.500;2023-12-22T03:08:52;98208.16;;;4.81;86.82
15529;BME280;7866;52.280;9.500;2023-12-22T03:13:54;98216.31;;;4.79;85.46
15529;BME280;7866;52.280;9.500;2023-12-22T03:18:55;98227.75;;;4.80;85.72
15529;BME280;7866;52.280;9.500;2023-12-22T03:23:58;98220.75;;;4.93;85.63
15529;BME280;7866;52.280;9.500;2023-12-22T03:29:00;98214.28;;;4.96;86.19
15529;BME280;7866;52.280;9.500;2023-12-22T03:34:02;98211.63;;;4.96;85.87
15529;BME280;7866;52.280;9.500;2023-12-22T03:39:05;98222.50;;;4.86;86.34
15529;BME280;7866;52.280;9.500;2023-12-22T03:44:06;98207.16;;;4.82;85.88
15529;BME280;7866;52.280;9.500;2023-12-22T03:49:08;98204.78;;;4.87;84.94
15529;BME280;7866;52.280;9.500;2023-12-22T03:54:11;98222.59;;;4.93;84.64
15529;BME280;7866;52.280;9.500;2023-12-22T03:59:12;98213.06;;;4.99;84.65
15529;BME280;7866;52.280;9.500;2023-12-22T04:04:14;98206.00;;;5.06;83.35
15529;BME280;7866;52.280;9.500;2023-12-22T04:09:17;98199.25;;;5.03;82.74
15529;BME280;7866;52.280;9.500;2023-12-22T04:14:20;98200.13;;;5.10;83.25
15529;BME280;7866;52.280;9.500;2023-12-22T04:19:22;98205.84;;;5.07;82.58
15529;BME280;7866;52.280;9.500;2023-12-22T04:24:24;98194.84;;;5.10;82.11
15529;BME280;7866;52.280;9.500;2023-12-22T04:29:26;98177.94;;;5.11;81.61
15529;BME280;7866;52.280;9.500;2023-12-22T04:34:28;98191.53;;;5.23;81.36
15529;BME280;7866;52.280;9.500;2023-12-22T04:39:31;98185.31;;;5.37;81.08
15529;BME280;7866;52.280;9.500;2023-12-22T04:44:32;98202.19;;;5.30;81.33
15529;BME280;7866;52.280;9.500;2023-12-22T04:49:34;98198.91;;;5.28;80.05
15529;BME280;7866;52.280;9.500;2023-12-22T04:54:37;98202.84;;;5.32;80.49
15529;BME280;7866;52.280;9.500;2023-12-22T04:59:39;98199.53;;;5.30;80.61
15529;BME280;7866;52.280;9.500;2023-12-22T05:04:40;98224.81;;;5.26;81.08
15529;BME280;7866;52.280;9.500;2023-12-22T05:09:43;98214.00;;;4.91;85.19
15529;BME280;7866;52.280;9.500;2023-12-22T05:14:45;98216.28;;;4.94;87.39
15529;BME280;7866;52.280;9.500;2023-12-22T05:19:46;98219.56;;;4.96;87.45
15529;BME280;7866;52.280;9.500;2023-12-22T05:24:49;98229.16;;;4.97;87.05
15529;BME280;7866;52.280;9.500;2023-12-22T05:29:51;98225.50;;;4.98;87.98
15529;BME280;7866;52.280;9.500;2023-12-22T05:34:53;98211.31;;;5.06;86.33
15529;BME280;7866;52.280;9.500;2023-12-22T05:39:56;98226.94;;;5.15;84.44
15529;BME280;7866;52.280;9.500;2023-12-22T05:44:57;98224.19;;;5.24;83.08
15529;BME280;7866;52.280;9.500;2023-12-22T05:49:59;98240.66;;;5.19;81.88
15529;BME280;7866;52.280;9.500;2023-12-22T05:55:02;98236.44;;;5.25;82.58
15529;BME280;7866;52.280;9.500;2023-12-22T06:00:05;98260.22;;;5.33;82.88
15529;BME280;7866;52.280;9.500;2023-12-22T06:05:08;98283.41;;;5.09;83.58
15529;BME280;7866;52.280;9.500;2023-12-22T06:10:11;98279.94;;;4.94;85.12
15529;BME280;7866;52.280;9.500;2023-12-22T06:15:12;98268.97;;;4.82;87.04
15529;BME280;7866;52.280;9.500;2023-12-22T06:20:14;98276.66;;;4.92;87.73
15529;BME280;7866;52.280;9.500;2023-12-22T06:25:17;98258.44;;;4.89;86.87
15529;BME280;7866;52.280;9.500;2023-12-22T06:30:19;98240.59;;;4.98;87.64
15529;BME280;7866;52.280;9.500;2023-12-22T06:35:20;98201.81;;;5.11;85.92
15529;BME280;7866;52.280;9.500;2023-12-22T06:40:26;98231.84;;;5.18;85.05
15529;BME280;7866;52.280;9.500;2023-12-22T06:45:28;98258.91;;;5.43;83.04
15529;BME280;7866;52.280;9.500;2023-12-22T06:50:30;98342.41;;;5.62;83.41
15529;BME280;7866;52.280;9.500;2023-12-22T06:55:35;98335.13;;;5.50;84.94
15529;BME280;7866;52.280;9.500;2023-12-22T07:00:36;98331.41;;;5.29;86.30
15529;BME280;7866;52.280;9.500;2023-12-22T07:05:38;98312.00;;;5.29;87.68
15529;BME280;7866;52.280;9.500;2023-12-22T07:10:41;98356.31;;;5.28;88.38
15529;BME280;7866;52.280;9.500;2023-12-22T07:15:42;98358.19;;;5.49;85.71
15529;BME280;7866;52.280;9.500;2023-12-22T07:20:44;98333.75;;;5.54;85.07
15529;BME280;7866;52.280;9.500;2023-12-22T07:25:47;98330.16;;;5.61;83.98
15529;BME280;7866;52.280;9.500;2023-12-22T07:30:49;98347.72;;;5.62;83.80
15529;BME280;7866;52.280;9.500;2023-12-22T07:35:50;98328.53;;;5.60;83.12
15529;BME280;7866;52.280;9.500;2023-12-22T07:40:53;98365.03;;;5.73;82.34
15529;BME280;7866;52.280;9.500;2023-12-22T07:45:55;98376.75;;;5.79;81.74
15529;BME280;7866;52.280;9.500;2023-12-22T07:50:56;98397.81;;;5.80;81.90
15529;BME280;7866;52.280;9.500;2023-12-22T07:55:59;98441.66;;;5.91;81.04
15529;BME280;7866;52.280;9.500;2023-12-22T08:01:01;98454.28;;;5.89;79.80
15529;BME280;7866;52.280;9.500;2023-12-22T08:06:03;98415.38;;;5.96;79.95
15529;BME280;7866;52.280;9.500;2023-12-22T08:11:06;98429.13;;;6.00;79.50
15529;BME280;7866;52.280;9.500;2023-12-22T08:16:08;98443.84;;;6.02;79.38
15529;BME280;7866;52.280;9.500;2023-12-22T08:21:10;98431.47;;;6.09;78.20
15529;BME280;7866;52.280;9.500;2023-12-22T08:26:13;98432.28;;;6.10;78.49
15529;BME280;7866;52.280;9.500;2023-12-22T08:31:17;98422.75;;;6.15;78.21
15529;BME280;7866;52.280;9.500;2023-12-22T08:36:19;98436.31;;;6.21;78.03
15529;BME280;7866;52.280;9.500;2023-12-22T08:41:22;98448.66;;;6.28;77.62
15529;BME280;7866;52.280;9.500;2023-12-22T08:46:23;98460.09;;;6.29;77.23
15529;BME280;7866;52.280;9.500;2023-12-22T08:51:26;98460.56;;;6.32;77.22
15529;BME280;7866;52.280;9.500;2023-12-22T08:56:30;98487.50;;;6.29;76.13
15529;BME280;7866;52.280;9.500;2023-12-22T09:01:31;98485.63;;;6.45;76.79
15529;BME280;7866;52.280;9.500;2023-12-22T09:06:33;98481.72;;;6.40;75.05
15529;BME280;7866;52.280;9.500;2023-12-22T09:11:36;98474.19;;;6.44;75.08
15529;BME280;7866;52.280;9.500;2023-12-22T09:16:38;98485.19;;;6.41;75.75
15529;BME280;7866;52.280;9.500;2023-12-22T09:21:39;98485.25;;;6.48;75.44
15529;BME280;7866;52.280;9.500;2023-12-22T09:26:43;98507.81;;;6.52;76.10
15529;BME280;7866;52.280;9.500;2023-12-22T09:31:45;98491.63;;;6.32;78.10
15529;BME280;7866;52.280;9.500;2023-12-22T09:36:46;98502.00;;;6.27;79.68
15529;BME280;7866;52.280;9.500;2023-12-22T09:41:50;98485.19;;;6.05;81.39
15529;BME280;7866;52.280;9.500;2023-12-22T09:46:52;98474.63;;;5.82;83.42
15529;BME280;7866;52.280;9.500;2023-12-22T09:51:54;98469.78;;;6.00;83.12
15529;BME280;7866;52.280;9.500;2023-12-22T09:57:00;98476.84;;;5.93;83.66
15529;BME280;7866;52.280;9.500;2023-12-22T10:02:02;98475.38;;;6.05;83.05
15529;BME280;7866;52.280;9.500;2023-12-22T10:07:06;98470.72;;;6.07;82.87
15529;BME280;7866;52.280;9.500;2023-12-22T10:12:11;98461.03;;;6.21;82.64
15529;BME280;7866;52.280;9.500;2023-12-22T10:17:15;98464.81;;;6.27;82.18
15529;BME280;7866;52.280;9.500;2023-12-22T10:22:17;98454.09;;;6.41;82.47
15529;BME280;7866;52.280;9.500;2023-12-22T10:27:20;98423.78;;;6.36;83.23
15529;BME280;7866;52.280;9.500;2023-12-22T10:32:23;98418.53;;;6.43;83.46
15529;BME280;7866;52.280;9.500;2023-12-22T10:37:25;98397.59;;;6.54;83.42
15529;BME280;7866;52.280;9.500;2023-12-22T10:42:28;98403.63;;;6.70;82.76
15529;BME280;7866;52.280;9.500;2023-12-22T10:47:30;98422.75;;;6.80;82.10
15529;BME280;7866;52.280;9.500;2023-12-22T10:52:31;98384.34;;;6.89;81.05
15529;BME280;7866;52.280;9.500;2023-12-22T10:57:34;98401.03;;;7.04;81.20
15529;BME280;7866;52.280;9.500;2023-12-22T11:02:42;98415.22;;;7.11;81.17
15529;BME280;7866;52.280;9.500;2023-12-22T11:07:48;98419.13;;;7.15;81.18
15529;BME280;7866;52.280;9.500;2023-12-22T11:12:51;98438.16;;;7.12;81.88
15529;BME280;7866;52.280;9.500;2023-12-22T11:17:55;98426.97;;;7.24;82.00
15529;BME280;7866;52.280;9.500;2023-12-22T11:22:59;98426.59;;;7.27;81.52
15529;BME280;7866;52.280;9.500;2023-12-22T11:28:04;98440.13;;;7.32;81.80
15529;BME280;7866;52.280;9.500;2023-12-22T11:33:08;98419.84;;;7.31;82.39
15529;BME280;7866;52.280;9.500;2023-12-22T11:38:11;98414.69;;;7.23;81.63
15529;BME280;7866;52.280;9.500;2023-12-22T11:43:14;98424.53;;;7.29;81.97
15529;BME280;7866;52.280;9.500;2023-12-22T11:48:16;98424.53;;;7.29;81.97
15529;BME280;7866;52.280;9.500;2023-12-22T11:53:19;98410.63;;;7.27;81.76
15529;BME280;7866;52.280;9.500;2023-12-22T11:58:37;98397.91;;;7.29;82.17
15529;BME280;7866;52.280;9.500;2023-12-22T12:03:48;98390.56;;;7.31;82.13
15529;BME280;7866;52.280;9.500;2023-12-22T12:08:50;98407.34;;;7.31;82.27
15529;BME280;7866;52.280;9.500;2023-12-22T12:14:09;98415.56;;;7.36;81.91
15529;BME280;7866;52.280;9.500;2023-12-22T12:19:12;98399.00;;;7.34;81.66
15529;BME280;7866;52.280;9.500;2023-12-22T12:24:14;98391.97;;;7.27;81.67
15529;BME280;7866;52.280;9.500;2023-12-22T12:29:17;98406.13;;;7.34;81.62
15529;BME280;7866;52.280;9.500;2023-12-22T12:34:19;98387.09;;;7.37;81.63
15529;BME280;7866;52.280;9.500;2023-12-22T12:39:24;98387.47;;;7.34;81.90
15529;BME280;7866;52.280;9.500;2023-12-22T12:44:33;98391.59;;;7.36;82.09
15529;BME280;7866;52.280;9.500;2023-12-22T12:49:36;98394.28;;;7.36;82.31
15529;BME280;7866;52.280;9.500;2023-12-22T12:54:38;98406.38;;;7.39;82.17
15529;BME280;7866;52.280;9.500;2023-12-22T12:59:44;98394.66;;;7.33;82.11
15529;BME280;7866;52.280;9.500;2023-12-22T13:04:46;98390.34;;;7.32;82.16
15529;BME280;7866;52.280;9.500;2023-12-22T13:09:48;98392.19;;;7.32;82.77
15529;BME280;7866;52.280;9.500;2023-12-22T13:14:51;98393.22;;;7.31;82.48
15529;BME280;7866;52.280;9.500;2023-12-22T13:19:53;98394.22;;;7.30;83.37
15529;BME280;7866;52.280;9.500;2023-12-22T13:24:55;98388.50;;;7.26;83.13
15529;BME280;7866;52.280;9.500;2023-12-22T13:29:58;98408.19;;;7.32;82.96
15529;BME280;7866;52.280;9.500;2023-12-22T13:35:00;98382.53;;;7.24;83.84
15529;BME280;7866;52.280;9.500;2023-12-22T13:40:07;98380.69;;;7.25;83.82
15529;BME280;7866;52.280;9.500;2023-12-22T13:45:11;98390.94;;;7.28;84.13
15529;BME280;7866;52.280;9.500;2023-12-22T13:50:13;98404.03;;;7.23;84.47
15529;BME280;7866;52.280;9.500;2023-12-22T13:55:18;98391.53;;;7.23;84.58
15529;BME280;7866;52.280;9.500;2023-12-22T14:00:27;98375.72;;;7.15;84.79
15529;BME280;7866;52.280;9.500;2023-12-22T14:05:30;98361.81;;;7.20;85.00
15529;BME280;7866;52.280;9.500;2023-12-22T14:10:31;98352.81;;;7.21;85.09
15529;BME280;7866;52.280;9.500;2023-12-22T14:15:34;98359.75;;;7.15;85.07
15529;BME280;7866;52.280;9.500;2023-12-22T14:20:37;98340.06;;;7.09;84.80
15529;BME280;7866;52.280;9.500;2023-12-22T14:25:38;98350.31;;;7.12;85.20
15529;BME280;7866;52.280;9.500;2023-12-22T14:30:41;98338.41;;;7.08;84.94
15529;BME280;7866;52.280;9.500;2023-12-22T14:35:43;98330.63;;;7.07;85.26
15529;BME280;7866;52.280;9.500;2023-12-22T14:40:45;98334.72;;;7.09;85.40
15529;BME280;7866;52.280;9.500;2023-12-22T14:45:48;98334.13;;;7.07;85.37
15529;BME280;7866;52.280;9.500;2023-12-22T14:50:49;98323.69;;;7.12;85.21
15529;BME280;7866;52.280;9.500;2023-12-22T14:55:51;98331.88;;;7.11;85.03
15529;BME280;7866;52.280;9.500;2023-12-22T15:00:55;98308.53;;;7.13;85.19
15529;BME280;7866;52.280;9.500;2023-12-22T15:05:56;98316.34;;;7.14;85.93
15529;BME280;7866;52.280;9.500;2023-12-22T15:10:58;98322.00;;;7.05;86.42
15529;BME280;7866;52.280;9.500;2023-12-22T15:16:05;98321.16;;;6.98;85.56
15529;BME280;7866;52.280;9.500;2023-12-22T15:21:07;98308.91;;;7.03;84.44
15529;BME280;7866;52.280;9.500;2023-12-22T15:26:19;98342.53;;;7.11;84.03
15529;BME280;7866;52.280;9.500;2023-12-22T15:31:22;98317.94;;;7.09;84.71
15529;BME280;7866;52.280;9.500;2023-12-22T15:36:24;98308.91;;;7.03;85.47
15529;BME280;7866;52.280;9.500;2023-12-22T15:41:28;98313.00;;;7.06;85.95
15529;BME280;7866;52.280;9.500;2023-12-22T15:46:32;98333.09;;;7.08;86.05
15529;BME280;7866;52.280;9.500;2023-12-22T15:51:34;98334.06;;;7.01;87.61
15529;BME280;7866;52.280;9.500;2023-12-22T15:56:36;98351.44;;;6.97;88.70
15529;BME280;7866;52.280;9.500;2023-12-22T16:01:43;98340.34;;;6.93;89.40
15529;BME280;7866;52.280;9.500;2023-12-22T16:06:45;98342.13;;;6.79;91.96
15529;BME280;7866;52.280;9.500;2023-12-22T16:11:47;98350.97;;;6.86;92.32
15529;BME280;7866;52.280;9.500;2023-12-22T16:16:55;98361.63;;;6.86;93.55
15529;BME280;7866;52.280;9.500;2023-12-22T16:21:57;98373.25;;;6.85;95.27
15529;BME280;7866;52.280;9.500;2023-12-22T16:26:58;98360.16;;;6.84;94.90
15529;BME280;7866;52.280;9.500;2023-12-22T16:32:01;98359.53;;;6.82;95.87
15529;BME280;7866;52.280;9.500;2023-12-22T16:37:03;98383.09;;;6.85;96.37
15529;BME280;7866;52.280;9.500;2023-12-22T16:42:06;98364.31;;;6.93;95.66
15529;BME280;7866;52.280;9.500;2023-12-22T16:47:09;98374.78;;;6.95;96.23
15529;BME280;7866;52.280;9.500;2023-12-22T16:52:11;98374.19;;;6.99;95.57
15529;BME280;7866;52.280;9.500;2023-12-22T16:57:13;98391.41;;;7.03;95.06
15529;BME280;7866;52.280;9.500;2023-12-22T17:02:16;98402.28;;;7.08;94.39
15529;BME280;7866;52.280;9.500;2023-12-22T17:07:17;98408.88;;;7.12;94.36
15529;BME280;7866;52.280;9.500;2023-12-22T17:12:19;98400.50;;;7.15;94.09
15529;BME280;7866;52.280;9.500;2023-12-22T17:17:22;98395.41;;;7.21;93.42
15529;BME280;7866;52.280;9.500;2023-12-22T17:22:24;98397.47;;;7.19;93.28
15529;BME280;7866;52.280;9.500;2023-12-22T17:27:28;98396.81;;;7.16;93.89
15529;BME280;7866;52.280;9.500;2023-12-22T17:32:31;98378.19;;;7.16;93.80
15529;BME280;7866;52.280;9.500;2023-12-22T17:37:32;98393.34;;;7.16;93.50
15529;BME280;7866;52.280;9.500;2023-12-22T17:42:34;98394.59;;;7.20;92.69
15529;BME280;7866;52.280;9.500;2023-12-22T17:47:38;98405.09;;;7.28;91.45
15529;BME280;7866;52.280;9.500;2023-12-22T17:52:39;98431.50;;;7.30;90.86
15529;BME280;7866;52.280;9.500;2023-12-22T17:57:41;98473.25;;;7.23;91.16
15529;BME280;7866;52.280;9.500;2023-12-22T18:02:44;98520.28;;;5.71;92.03
15529;BME280;7866;52.280;9.500;2023-12-22T18:07:47;98525.97;;;4.38;95.44
15529;BME280;7866;52.280;9.500;2023-12-22T18:12:49;98523.88;;;3.94;96.86
15529;BME280;7866;52.280;9.500;2023-12-22T18:17:52;98518.84;;;4.15;99.74
15529;BME280;7866;52.280;9.500;2023-12-22T18:22:54;98525.94;;;4.46;99.66
15529;BME280;7866;52.280;9.500;2023-12-22T18:27:55;98535.28;;;4.65;100.00
15529;BME280;7866;52.280;9.500;2023-12-22T18:32:59;98513.47;;;4.78;100.00
15529;BME280;7866;52.280;9.500;2023-12-22T18:38:01;98537.66;;;4.83;100.00
15529;BME280;7866;52.280;9.500;2023-12-22T18:43:03;98543.53;;;4.93;100.00
15529;BME280;7866;52.280;9.500;2023-12-22T18:48:06;98543.31;;;5.03;100.00
15529;BME280;7866;52.280;9.500;2023-12-22T18:53:08;98530.59;;;5.13;100.00
15529;BME280;7866;52.280;9.500;2023-12-22T18:58:10;98542.97;;;5.21;100.00
15529;BME280;7866;52.280;9.500;2023-12-22T19:03:13;98564.06;;;5.37;100.00
15529;BME280;7866;52.280;9.500;2023-12-22T19:08:14;98542.41;;;5.48;100.00
15529;BME280;7866;52.280;9.500;2023-12-22T19:13:17;98565.00;;;5.44;100.00
15529;BME280;7866;52.280;9.500;2023-12-22T19:18:19;98572.50;;;5.40;100.00
15529;BME280;7866;52.280;9.500;2023-12-22T19:23:22;98606.13;;;5.48;100.00
15529;BME280;7866;52.280;9.500;2023-12-22T19:28:23;98608.09;;;5.46;100.00
15529;BME280;7866;52.280;9.500;2023-12-22T19:33:26;98602.22;;;5.59;100.00
15529;BME280;7866;52.280;9.500;2023-12-22T19:38:28;98606.66;;;5.58;100.00
15529;BME280;7866;52.280;9.500;2023-12-22T19:43:30;98620.13;;;5.57;100.00
15529;BME280;7866;52.280;9.500;2023-12-22T19:48:33;98620.53;;;5.68;100.00
15529;BME280;7866;52.280;9.500;2023-12-22T19:53:35;98640.34;;;5.81;100.00
15529;BME280;7866;52.280;9.500;2023-12-22T19:58:36;98642.28;;;5.87;100.00
15529;BME280;7866;52.280;9.500;2023-12-22T20:03:39;98638.56;;;5.96;100.00
15529;BME280;7866;52.280;9.500;2023-12-22T20:13:52;98643.09;;;6.10;100.00
15529;BME280;7866;52.280;9.500;2023-12-22T20:18:55;98662.41;;;6.19;100.00
15529;BME280;7866;52.280;9.500;2023-12-22T20:23:57;98657.94;;;6.20;100.00
15529;BME280;7866;52.280;9.500;2023-12-22T20:28:59;98656.09;;;6.20;100.00
15529;BME280;7866;52.280;9.500;2023-12-22T20:34:02;98684.75;;;6.10;99.40
15529;BME280;7866;52.280;9.500;2023-12-22T20:39:04;98682.00;;;6.18;97.60
15529;BME280;7866;52.280;9.500;2023-12-22T20:44:06;98680.38;;;6.17;95.98
15529;BME280;7866;52.280;9.500;2023-12-22T20:49:09;98678.97;;;6.06;95.26
15529;BME280;7866;52.280;9.500;2023-12-22T20:54:11;98699.31;;;5.99;93.24
15529;BME280;7866;52.280;9.500;2023-12-22T20:59:13;98718.66;;;6.08;91.36
15529;BME280;7866;52.280;9.500;2023-12-22T21:04:16;98724.53;;;6.03;90.35
15529;BME280;7866;52.280;9.500;2023-12-22T21:09:18;98715.19;;;6.07;88.81
15529;BME280;7866;52.280;9.500;2023-12-22T21:14:21;98736.13;;;6.02;89.02
15529;BME280;7866;52.280;9.500;2023-12-22T21:19:24;98736.53;;;5.99;89.14
15529;BME280;7866;52.280;9.500;2023-12-22T21:24:25;98748.88;;;5.92;89.39
15529;BME280;7866;52.280;9.500;2023-12-22T21:29:27;98760.94;;;5.72;90.60
15529;BME280;7866;52.280;9.500;2023-12-22T21:34:30;98740.50;;;5.49;91.92
15529;BME280;7866;52.280;9.500;2023-12-22T21:39:31;98738.50;;;5.51;93.39
15529;BME280;7866;52.280;9.500;2023-12-22T21:44:38;98753.84;;;5.41;94.88
15529;BME280;7866;52.280;9.500;2023-12-22T21:49:41;98766.16;;;5.34;94.93
15529;BME280;7866;52.280;9.500;2023-12-22T21:54:43;98798.13;;;5.40;95.68
15529;BME280;7866;52.280;9.500;2023-12-22T21:59:45;98809.66;;;5.25;97.20
15529;BME280;7866;52.280;9.500;2023-12-22T22:04:49;98814.09;;;5.32;96.31
15529;BME280;7866;52.280;9.500;2023-12-22T22:09:51;98799.72;;;5.27;95.98
15529;BME280;7866;52.280;9.500;2023-12-22T22:14:52;98825.25;;;5.28;96.62
15529;BME280;7866;52.280;9.500;2023-12-22T22:19:55;98827.72;;;5.29;96.85
15529;BME280;7866;52.280;9.500;2023-12-22T22:24:57;98853.78;;;5.26;96.46
15529;BME280;7866;52.280;9.500;2023-12-22T22:29:58;98861.47;;;5.12;96.51
15529;BME280;7866;52.280;9.500;2023-12-22T22:35:02;98875.38;;;5.23;94.20
15529;BME280;7866;52.280;9.500;2023-12-22T22:40:07;98873.34;;;5.25;93.61
15529;BME280;7866;52.280;9.500;2023-12-22T22:45:11;98880.56;;;5.08;94.23
15529;BME280;7866;52.280;9.500;2023-12-22T22:50:14;98896.44;;;5.16;94.16
15529;BME280;7866;52.280;9.500;2023-12-22T22:55:16;98919.63;;;5.22;94.98
15529;BME280;7866;52.280;9.500;2023-12-22T23:00:18;98920.81;;;5.19;96.34
15529;BME280;7866;52.280;9.500;2023-12-22T23:05:29;98918.50;;;5.16;96.91
15529;BME280;7866;52.280;9.500;2023-12-22T23:10:35;98936.59;;;5.13;95.95
15529;BME280;7866;52.280;9.500;2023-12-22T23:15:37;98955.69;;;5.00;95.29
15529;BME280;7866;52.280;9.500;2023-12-22T23:20:39;98955.69;;;5.00;94.31
15529;BME280;7866;52.280;9.500;2023-12-22T23:25:41;98968.78;;;4.93;93.79
15529;BME280;7866;52.280;9.500;2023-12-22T23:30:45;98952.84;;;4.93;92.53
15529;BME280;7866;52.280;9.500;2023-12-22T23:35:48;98989.00;;;5.03;91.99
15529;BME280;7866;52.280;9.500;2023-12-22T23:40:50;98989.00;;;5.03;91.51
15529;BME280;7866;52.280;9.500;2023-12-22T23:45:51;98996.31;;;4.84;90.46
15529;BME280;7866;52.280;9.500;2023-12-22T23:50:59;99017.69;;;4.83;89.24
15529;BME280;7866;52.280;9.500;2023-12-22T23:56:00;99030.59;;;4.69;89.06
